Time;durP1;ratioP1;P1;durP2;ratioP2;P2;SDS_P1;SDS_P2;PMS_P1;PMS_P2;Temp;Humidity;BMP_temperature;BMP_pressure;BME280_temperature;BME280_humidity;BME280_pressure;Samples;Min_cycle;Max_cycle;Signal;HPM_P1;HPM_P2
2022/12/03 00:02:00;;;;;;;24.33;8.00;;;4.60;79.10;;;;;;5112987;28;20032;-75
2022/12/03 00:04:26;;;;;;;20.88;8.73;;;4.60;79.30;;;;;;5096016;28;20016;-75
2022/12/03 00:06:51;;;;;;;25.30;9.13;;;4.60;79.20;;;;;;5113830;28;20039;-75
2022/12/03 00:09:17;;;;;;;20.40;8.25;;;4.60;79.30;;;;;;5112778;28;20016;-74
2022/12/03 00:11:43;;;;;;;21.90;8.35;;;4.50;79.20;;;;;;5112720;28;20224;-74
2022/12/03 00:14:08;;;;;;;18.27;7.18;;;4.50;79.50;;;;;;5113639;28;20020;-74
2022/12/03 00:16:34;;;;;;;22.65;8.68;;;4.60;79.40;;;;;;5113698;28;20490;-75
2022/12/03 00:18:59;;;;;;;21.98;8.65;;;4.50;79.50;;;;;;5112609;28;20036;-75
2022/12/03 00:21:25;;;;;;;17.15;7.78;;;4.50;79.50;;;;;;5113623;28;20024;-74
2022/12/03 00:23:51;;;;;;;23.52;8.23;;;4.60;79.60;;;;;;5113605;28;20231;-75
2022/12/03 00:26:16;;;;;;;24.55;8.43;;;4.60;79.50;;;;;;5112663;28;20028;-74
2022/12/03 00:28:42;;;;;;;25.17;7.78;;;4.60;79.60;;;;;;5113552;28;20039;-74
2022/12/03 00:31:07;;;;;;;24.75;8.07;;;4.60;79.30;;;;;;5113333;28;20055;-75
2022/12/03 00:33:33;;;;;;;25.23;9.10;;;4.60;79.20;;;;;;5113429;28;20036;-74
2022/12/03 00:35:59;;;;;;;21.40;8.07;;;4.60;79.50;;;;;;5112441;28;20027;-75
2022/12/03 00:38:24;;;;;;;19.98;7.78;;;4.60;79.30;;;;;;5112440;28;20032;-75
2022/12/03 00:40:50;;;;;;;24.95;9.00;;;4.60;79.00;;;;;;5113434;28;20032;-75
2022/12/03 00:43:15;;;;;;;24.65;9.13;;;4.60;79.40;;;;;;5112506;28;20039;-75
2022/12/03 00:45:41;;;;;;;28.75;9.68;;;4.60;79.30;;;;;;5112395;28;20024;-74
2022/12/03 00:48:06;;;;;;;21.33;8.30;;;4.60;79.50;;;;;;5113360;28;20028;-75
2022/12/03 00:50:32;;;;;;;22.83;8.05;;;4.60;79.60;;;;;;5112402;28;20107;-74
2022/12/03 00:52:58;;;;;;;20.85;8.02;;;4.60;79.50;;;;;;5095584;28;20092;-75
2022/12/03 00:55:23;;;;;;;23.48;9.05;;;4.60;79.60;;;;;;5113223;28;20028;-74
2022/12/03 00:57:49;;;;;;;23.77;8.43;;;4.60;79.30;;;;;;5113733;28;20032;-74
2022/12/03 01:00:15;;;;;;;21.80;7.63;;;4.60;79.40;;;;;;5117342;28;20020;-74
2022/12/03 01:02:40;;;;;;;19.60;8.27;;;4.60;79.30;;;;;;5117421;28;20031;-74
2022/12/03 01:05:06;;;;;;;22.95;8.73;;;4.70;79.30;;;;;;5116203;28;20024;-75
2022/12/03 01:07:32;;;;;;;22.40;8.40;;;4.70;79.30;;;;;;5117053;28;20050;-75
2022/12/03 01:09:58;;;;;;;20.25;7.55;;;4.60;79.60;;;;;;5116088;28;20028;-74
2022/12/03 01:12:23;;;;;;;22.42;8.63;;;4.70;79.60;;;;;;5117083;28;20035;-74
2022/12/03 01:14:49;;;;;;;18.73;8.32;;;4.70;79.30;;;;;;5116983;28;20062;-74
2022/12/03 01:17:15;;;;;;;19.60;8.68;;;4.70;79.50;;;;;;5116992;28;20035;-74
2022/12/03 01:19:40;;;;;;;22.58;8.90;;;4.70;79.40;;;;;;5116938;28;20079;-74
2022/12/03 01:22:06;;;;;;;21.60;9.43;;;4.70;79.30;;;;;;5116924;28;20035;-74
2022/12/03 01:24:32;;;;;;;26.13;9.73;;;4.70;79.40;;;;;;5116854;28;20093;-75
2022/12/03 01:26:58;;;;;;;22.63;8.77;;;4.70;79.40;;;;;;5116948;28;20028;-75
2022/12/03 01:29:23;;;;;;;24.30;8.75;;;4.70;79.40;;;;;;5116744;28;20036;-74
2022/12/03 01:34:34;;;;;;;17.90;7.53;;;4.70;79.00;;;;;;5115993;28;20069;-74
2022/12/03 01:37:00;;;;;;;23.00;7.82;;;4.70;79.30;;;;;;5116630;28;20036;-75
2022/12/03 01:39:26;;;;;;;22.80;8.73;;;4.60;79.30;;;;;;5116579;28;20016;-74
2022/12/03 01:41:53;;;;;;;25.10;8.98;;;4.70;79.50;;;;;;5116557;28;20032;-74
2022/12/03 01:44:33;;;;;;;23.30;9.27;;;4.60;79.40;;;;;;5115668;28;20024;-74
2022/12/03 01:47:02;;;;;;;24.98;9.50;;;4.70;79.60;;;;;;5116475;28;20035;-75
2022/12/03 01:49:36;;;;;;;23.65;8.75;;;4.70;79.40;;;;;;5116393;28;20028;-75
2022/12/03 01:52:01;;;;;;;23.30;8.40;;;4.70;79.30;;;;;;5116386;28;20020;-74
2022/12/03 01:54:38;;;;;;;22.40;8.38;;;4.70;79.30;;;;;;5116244;28;20053;-74
2022/12/03 01:57:07;;;;;;;23.08;8.30;;;4.70;79.50;;;;;;5115268;28;20016;-75
2022/12/03 01:59:36;;;;;;;25.25;9.27;;;4.60;79.50;;;;;;5116202;28;20038;-75
2022/12/03 02:02:17;;;;;;;22.20;9.35;;;4.70;79.60;;;;;;5116237;28;20027;-74
2022/12/03 02:04:43;;;;;;;20.85;8.85;;;4.60;79.40;;;;;;5116139;28;20032;-75
2022/12/03 02:07:19;;;;;;;23.67;8.52;;;4.60;79.60;;;;;;5116046;28;20058;-74
2022/12/03 02:09:45;;;;;;;27.05;9.27;;;4.70;79.60;;;;;;5114123;28;20031;-75
2022/12/03 02:12:13;;;;;;;26.30;8.98;;;4.70;79.50;;;;;;5114958;28;20092;-74
2022/12/03 02:14:39;;;;;;;23.30;9.00;;;4.70;79.20;;;;;;5115796;28;20023;-75
2022/12/03 02:17:04;;;;;;;23.13;7.95;;;4.70;79.40;;;;;;5115860;28;20103;-75
2022/12/03 02:19:30;;;;;;;25.75;8.93;;;4.60;79.50;;;;;;5114915;28;20016;-74
2022/12/03 02:22:06;;;;;;;22.60;8.35;;;4.60;79.50;;;;;;5115757;28;20063;-75
2022/12/03 02:24:57;;;;;;;28.63;9.05;;;4.60;79.60;;;;;;5115578;28;20039;-75
2022/12/03 02:27:23;;;;;;;27.02;9.18;;;4.60;79.50;;;;;;5115661;28;20055;-74
2022/12/03 02:29:50;;;;;;;23.70;8.68;;;4.60;79.50;;;;;;5115583;28;20032;-74
2022/12/03 02:32:16;;;;;;;25.40;9.20;;;4.60;79.50;;;;;;5115395;28;20070;-74
2022/12/03 02:34:45;;;;;;;24.52;8.77;;;4.60;79.60;;;;;;5115429;28;20048;-74
2022/12/03 02:37:14;;;;;;;26.50;10.85;;;4.70;79.60;;;;;;5115468;28;20020;-75
2022/12/03 02:39:44;;;;;;;20.67;8.32;;;4.70;79.60;;;;;;5114155;28;20031;-74
2022/12/03 02:44:56;;;;;;;26.77;8.75;;;4.60;79.50;;;;;;5115427;28;20062;-74
2022/12/03 02:47:22;;;;;;;25.60;8.98;;;4.60;79.60;;;;;;5115264;28;20032;-75
2022/12/03 02:49:49;;;;;;;23.60;8.52;;;4.60;79.90;;;;;;5114176;28;20031;-75
2022/12/03 02:52:14;;;;;;;26.00;9.15;;;4.60;79.90;;;;;;5115170;28;20032;-75
2022/12/03 02:54:40;;;;;;;26.98;9.50;;;4.60;79.70;;;;;;5115174;28;20032;-74
2022/12/03 02:57:06;;;;;;;23.98;8.82;;;4.60;79.80;;;;;;5114143;28;20027;-75
2022/12/03 02:59:32;;;;;;;25.95;9.75;;;4.60;79.60;;;;;;5113950;28;20109;-75
2022/12/03 03:01:58;;;;;;;26.33;9.52;;;4.60;79.50;;;;;;5114077;28;20024;-74
2022/12/03 03:04:24;;;;;;;20.98;9.40;;;4.60;79.40;;;;;;5114949;28;20054;-74
2022/12/03 03:06:50;;;;;;;27.13;10.18;;;4.60;79.60;;;;;;5114891;28;20039;-74
2022/12/03 03:09:17;;;;;;;23.35;8.48;;;4.60;79.50;;;;;;5114796;28;20051;-74
2022/12/03 03:11:42;;;;;;;19.63;7.97;;;4.50;80.60;;;;;;5096945;28;20028;-75
2022/12/03 03:14:08;;;;;;;27.60;10.32;;;4.60;79.90;;;;;;5114677;28;20043;-74
2022/12/03 03:16:33;;;;;;;23.15;9.15;;;4.60;80.00;;;;;;5114704;28;20088;-75
2022/12/03 03:19:01;;;;;;;26.92;9.75;;;4.50;79.90;;;;;;5096700;28;20042;-74
2022/12/03 03:21:26;;;;;;;24.80;10.23;;;4.60;80.20;;;;;;5113496;28;20040;-75
2022/12/03 03:23:52;;;;;;;22.33;9.05;;;4.60;79.80;;;;;;5114567;28;20044;-75
2022/12/03 03:26:17;;;;;;;23.90;9.70;;;4.60;79.80;;;;;;5113640;28;20036;-75
2022/12/03 03:28:47;;;;;;;21.95;8.60;;;4.50;79.70;;;;;;5113414;28;20028;-75
2022/12/03 03:31:16;;;;;;;26.83;9.43;;;4.50;79.50;;;;;;5114230;28;20074;-74
2022/12/03 03:33:44;;;;;;;24.38;9.10;;;4.50;79.90;;;;;;5114229;28;20447;-74
2022/12/03 03:36:11;;;;;;;25.48;9.52;;;4.50;79.90;;;;;;5114350;28;20013;-75
2022/12/03 03:38:37;;;;;;;25.83;10.10;;;4.50;80.80;;;;;;5113493;28;20025;-75
2022/12/03 03:41:05;;;;;;;25.65;9.90;;;4.50;80.00;;;;;;5113205;28;20024;-75
2022/12/03 03:43:33;;;;;;;25.52;9.23;;;4.50;80.10;;;;;;5114225;28;20024;-74
2022/12/03 03:46:00;;;;;;;21.73;8.90;;;4.50;80.00;;;;;;5114187;28;20026;-74
2022/12/03 03:48:26;;;;;;;25.15;9.70;;;4.50;80.00;;;;;;5096110;28;20099;-75
2022/12/03 03:50:52;;;;;;;29.30;10.50;;;4.50;80.30;;;;;;5113003;28;20091;-74
2022/12/03 03:53:19;;;;;;;24.92;10.05;;;4.50;80.20;;;;;;5114006;28;20024;-74
2022/12/03 03:55:45;;;;;;;25.98;9.52;;;4.50;80.00;;;;;;5114028;28;20080;-75
2022/12/03 03:58:11;;;;;;;29.02;10.25;;;4.50;79.90;;;;;;5114089;28;20024;-74
2022/12/03 04:00:37;;;;;;;25.08;10.55;;;4.50;80.20;;;;;;5113983;28;20017;-75
2022/12/03 04:03:03;;;;;;;31.13;10.45;;;4.50;80.50;;;;;;5113885;28;20043;-75
2022/12/03 04:05:29;;;;;;;29.85;10.52;;;4.50;80.30;;;;;;5113798;28;20039;-74
2022/12/03 04:07:55;;;;;;;27.48;10.98;;;4.50;80.00;;;;;;5113744;28;20079;-74
2022/12/03 04:13:05;;;;;;;26.67;10.55;;;4.50;80.50;;;;;;5113115;28;20046;-74
2022/12/03 04:15:30;;;;;;;26.17;10.00;;;4.50;80.30;;;;;;5113712;28;20032;-74
2022/12/03 04:20:41;;;;;;;25.63;10.30;;;4.50;80.20;;;;;;5113946;28;20035;-75
2022/12/03 04:23:07;;;;;;;28.75;10.25;;;4.60;80.30;;;;;;5113678;28;20032;-74
2022/12/03 04:35:41;;;;;;;27.50;9.82;;;4.50;80.50;;;;;;5112803;28;20093;-74
2022/12/03 04:36:35;;;;;;;26.95;11.30;;;4.50;80.60;;;;;;5113770;28;20049;-74
2022/12/03 04:39:00;;;;;;;29.00;10.25;;;4.40;80.60;;;;;;5112445;28;20040;-74
2022/12/03 04:41:26;;;;;;;34.45;10.98;;;4.40;80.60;;;;;;5113421;28;20056;-74
2022/12/03 04:46:35;;;;;;;29.58;10.35;;;4.40;81.00;;;;;;5113652;28;20047;-74
2022/12/03 04:49:01;;;;;;;31.30;10.43;;;4.40;81.00;;;;;;5112457;28;20503;-74
2022/12/03 04:51:27;;;;;;;30.58;11.35;;;4.30;81.10;;;;;;5112284;28;20074;-75
2022/12/03 04:53:52;;;;;;;30.73;10.93;;;4.30;81.20;;;;;;5113355;28;20036;-74
2022/12/03 04:56:18;;;;;;;34.55;10.57;;;4.30;81.30;;;;;;5112368;28;20035;-75
2022/12/03 04:58:44;;;;;;;32.60;11.05;;;4.30;81.30;;;;;;5112311;28;20029;-75
2022/12/03 05:01:10;;;;;;;30.77;11.65;;;4.30;81.40;;;;;;5113297;28;20020;-74
2022/12/03 05:03:36;;;;;;;30.35;11.07;;;4.30;81.20;;;;;;5113224;28;20036;-75
2022/12/03 05:06:01;;;;;;;29.70;10.98;;;4.30;81.60;;;;;;5095447;28;20040;-74
2022/12/03 05:08:27;;;;;;;32.35;11.13;;;4.30;81.80;;;;;;5112242;28;20039;-74
2022/12/03 05:10:52;;;;;;;28.55;10.13;;;4.30;81.70;;;;;;5112133;28;20093;-75
2022/12/03 05:13:18;;;;;;;27.23;10.63;;;4.30;81.90;;;;;;5113059;28;20038;-74
2022/12/03 05:15:43;;;;;;;28.88;10.80;;;4.40;81.90;;;;;;5112176;28;20029;-75
2022/12/03 05:18:09;;;;;;;30.77;10.77;;;4.30;81.70;;;;;;5112203;28;20020;-74
2022/12/03 05:20:40;;;;;;;27.40;10.05;;;4.30;81.70;;;;;;5113099;28;20020;-74
2022/12/03 05:23:08;;;;;;;27.17;10.95;;;4.30;81.90;;;;;;5113262;28;20047;-75
2022/12/03 05:25:33;;;;;;;38.03;11.27;;;4.30;81.90;;;;;;5095346;28;20017;-75
2022/12/03 05:27:59;;;;;;;29.15;10.27;;;4.40;81.70;;;;;;5112075;28;20070;-74
2022/12/03 05:30:24;;;;;;;30.92;10.40;;;4.40;81.60;;;;;;5112991;28;20055;-74
2022/12/03 05:32:50;;;;;;;34.20;11.35;;;4.30;81.80;;;;;;5112810;28;20052;-75
2022/12/03 05:35:16;;;;;;;30.92;11.02;;;4.30;82.00;;;;;;5112852;28;20036;-74
2022/12/03 05:37:41;;;;;;;23.30;9.77;;;4.30;82.00;;;;;;5112987;28;20407;-74
2022/12/03 05:40:08;;;;;;;33.88;11.80;;;4.30;82.00;;;;;;5112886;28;20031;-74
2022/12/03 05:45:23;;;;;;;27.08;10.30;;;4.40;82.00;;;;;;5115169;28;20039;-75
2022/12/03 05:47:49;;;;;;;30.42;10.55;;;4.40;82.10;;;;;;5115463;28;20035;-75
2022/12/03 05:50:15;;;;;;;31.67;11.07;;;4.40;82.00;;;;;;5116411;28;20028;-74
2022/12/03 05:52:41;;;;;;;26.77;9.52;;;4.40;81.80;;;;;;5115329;28;20054;-74
2022/12/03 05:55:07;;;;;;;31.17;10.73;;;4.40;81.80;;;;;;5116201;28;20024;-75
2022/12/03 05:57:33;;;;;;;30.92;10.50;;;4.40;81.90;;;;;;5115290;28;20031;-75
2022/12/03 05:59:58;;;;;;;28.20;9.80;;;4.40;82.00;;;;;;5116195;28;20024;-74
2022/12/03 06:02:24;;;;;;;28.33;9.50;;;4.40;82.00;;;;;;5115161;28;20031;-74
2022/12/03 06:04:49;;;;;;;30.48;10.70;;;4.40;81.70;;;;;;5115106;28;20117;-74
2022/12/03 06:07:15;;;;;;;28.83;9.70;;;4.50;81.60;;;;;;5115138;28;20040;-75
2022/12/03 06:09:41;;;;;;;31.38;10.43;;;4.40;81.60;;;;;;5114948;28;20039;-75
2022/12/03 06:12:09;;;;;;;24.77;9.38;;;4.50;81.80;;;;;;5115980;28;20028;-75
2022/12/03 06:14:35;;;;;;;27.77;9.88;;;4.40;81.40;;;;;;5115835;28;20024;-75
2022/12/03 06:17:01;;;;;;;24.13;9.18;;;4.40;81.50;;;;;;5114963;28;20091;-74
2022/12/03 06:19:27;;;;;;;34.00;10.15;;;4.40;81.70;;;;;;5098019;28;20164;-74
2022/12/03 06:21:52;;;;;;;24.85;10.70;;;4.40;81.60;;;;;;5098000;28;20021;-75
2022/12/03 06:24:18;;;;;;;28.83;9.98;;;4.40;81.50;;;;;;5115874;28;20379;-75
2022/12/03 06:26:43;;;;;;;25.80;9.50;;;4.40;81.50;;;;;;5114933;28;20043;-74
2022/12/03 06:29:09;;;;;;;27.20;9.27;;;4.40;81.50;;;;;;5115796;28;20087;-74
2022/12/03 06:31:35;;;;;;;32.85;10.45;;;4.40;81.50;;;;;;5115347;28;20104;-74
2022/12/03 06:34:00;;;;;;;24.80;9.95;;;4.40;81.60;;;;;;5115622;28;20036;-74
2022/12/03 06:36:26;;;;;;;23.98;8.90;;;4.40;81.60;;;;;;5114497;28;20050;-75
2022/12/03 06:38:52;;;;;;;25.40;9.73;;;4.40;81.30;;;;;;5114485;28;20016;-75
2022/12/03 06:41:18;;;;;;;24.70;9.07;;;4.40;81.40;;;;;;5114482;28;20020;-75
2022/12/03 06:43:44;;;;;;;25.35;9.45;;;4.40;81.40;;;;;;5115381;28;20486;-75
2022/12/03 06:46:10;;;;;;;22.10;8.95;;;4.40;81.30;;;;;;5115300;28;20036;-74
2022/12/03 06:48:35;;;;;;;24.05;8.93;;;4.30;81.10;;;;;;5115289;28;20032;-74
2022/12/03 06:51:01;;;;;;;21.55;8.85;;;4.30;81.40;;;;;;5115224;28;20057;-75
2022/12/03 06:53:26;;;;;;;27.10;9.15;;;4.30;81.20;;;;;;5115072;28;20032;-75
2022/12/03 06:55:52;;;;;;;22.52;8.20;;;4.30;81.40;;;;;;5114654;28;20043;-74
2022/12/03 06:58:17;;;;;;;24.10;8.45;;;4.30;80.90;;;;;;5114114;28;20032;-75
2022/12/03 07:00:43;;;;;;;26.85;8.32;;;4.40;81.10;;;;;;5115049;28;20028;-74
2022/12/03 07:03:09;;;;;;;27.08;9.00;;;4.30;81.00;;;;;;5114932;28;20024;-75
2022/12/03 07:05:34;;;;;;;26.60;8.63;;;4.40;81.00;;;;;;5113999;28;20035;-74
2022/12/03 07:08:00;;;;;;;24.38;8.60;;;4.40;80.80;;;;;;5113866;28;20032;-74
2022/12/03 07:10:26;;;;;;;23.60;9.15;;;4.40;80.90;;;;;;5113970;28;20020;-74
2022/12/03 07:12:51;;;;;;;22.60;9.13;;;4.40;80.80;;;;;;5113873;28;20036;-74
2022/12/03 07:15:17;;;;;;;22.30;8.57;;;4.40;80.80;;;;;;5114681;28;20028;-74
2022/12/03 07:17:42;;;;;;;23.48;8.98;;;4.40;81.00;;;;;;5114694;28;20043;-75
2022/12/03 07:20:09;;;;;;;23.02;7.47;;;4.40;80.80;;;;;;5114661;28;20043;-74
2022/12/03 07:22:35;;;;;;;24.25;8.40;;;4.40;80.80;;;;;;5114618;28;20024;-74
2022/12/03 07:25:00;;;;;;;26.48;9.30;;;4.40;80.70;;;;;;5114557;28;20083;-75
2022/12/03 07:27:26;;;;;;;23.63;8.85;;;4.50;80.80;;;;;;5114520;28;20047;-74
2022/12/03 07:29:51;;;;;;;24.38;9.43;;;4.40;80.30;;;;;;5114603;28;20403;-74
2022/12/03 07:32:17;;;;;;;23.45;8.32;;;4.40;80.50;;;;;;5114187;28;20051;-74
2022/12/03 07:34:43;;;;;;;21.30;7.60;;;4.40;80.70;;;;;;5114312;28;20085;-75
2022/12/03 07:37:08;;;;;;;23.65;8.18;;;4.40;80.90;;;;;;5096413;28;20441;-74
2022/12/03 07:39:34;;;;;;;25.13;9.63;;;4.40;80.80;;;;;;5114328;28;20036;-74
2022/12/03 07:42:00;;;;;;;28.10;9.77;;;4.30;80.90;;;;;;5114196;28;20032;-75
2022/12/03 07:44:26;;;;;;;25.95;9.82;;;4.30;80.90;;;;;;5113316;28;20057;-74
2022/12/03 07:46:52;;;;;;;27.25;9.38;;;4.30;81.10;;;;;;5113220;28;20051;-75
2022/12/03 07:49:18;;;;;;;27.10;8.95;;;4.30;81.10;;;;;;5114148;28;20032;-74
2022/12/03 07:51:52;;;;;;;25.30;9.02;;;4.30;81.10;;;;;;5114084;28;20020;-75
2022/12/03 07:54:22;;;;;;;31.38;10.43;;;4.30;81.20;;;;;;5114016;28;20028;-75
2022/12/03 07:56:47;;;;;;;26.80;9.88;;;4.30;81.10;;;;;;5113074;28;20016;-74
2022/12/03 07:59:14;;;;;;;30.67;9.75;;;4.30;80.90;;;;;;5113923;28;20020;-74
2022/12/03 08:01:39;;;;;;;27.52;8.85;;;4.30;80.90;;;;;;5113919;28;20050;-74
2022/12/03 08:04:05;;;;;;;26.98;9.32;;;4.30;81.30;;;;;;5112861;28;20031;-75
2022/12/03 08:06:30;;;;;;;25.42;9.05;;;4.30;81.40;;;;;;5095601;28;20036;-75
2022/12/03 08:08:56;;;;;;;25.27;8.43;;;4.30;81.50;;;;;;5113317;28;20028;-75
2022/12/03 08:11:22;;;;;;;30.85;9.85;;;4.30;81.20;;;;;;5113789;28;20055;-74
2022/12/03 08:13:47;;;;;;;31.15;9.95;;;4.30;80.60;;;;;;5113688;28;20056;-74
2022/12/03 08:16:18;;;;;;;27.95;9.52;;;4.30;80.70;;;;;;5112807;28;20020;-74
2022/12/03 08:18:45;;;;;;;28.73;9.95;;;4.20;80.90;;;;;;5113734;28;20110;-75
2022/12/03 08:21:13;;;;;;;28.40;9.27;;;4.30;80.70;;;;;;5113671;28;20027;-75
2022/12/03 08:23:39;;;;;;;27.40;8.93;;;4.20;80.50;;;;;;5113610;28;20058;-74
2022/12/03 08:26:24;;;;;;;26.77;8.60;;;4.20;80.40;;;;;;5112630;28;20032;-74
2022/12/03 08:28:51;;;;;;;33.35;9.80;;;4.20;80.50;;;;;;5113591;28;20024;-75
2022/12/03 08:31:19;;;;;;;31.98;10.07;;;4.20;80.90;;;;;;5113368;28;20024;-75
2022/12/03 08:33:50;;;;;;;30.17;9.63;;;4.30;80.90;;;;;;5113438;28;20020;-75
2022/12/03 08:36:23;;;;;;;26.55;9.25;;;4.20;80.90;;;;;;5113585;28;20107;-75
2022/12/03 08:38:53;;;;;;;25.92;10.30;;;4.20;80.90;;;;;;5113653;28;20053;-74
2022/12/03 08:42:40;;;;;;;30.77;9.82;;;4.30;80.80;;;;;;5113633;28;20016;-75
2022/12/03 08:44:27;;;;;;;31.38;9.07;;;4.30;81.00;;;;;;5112618;28;20040;-75
2022/12/03 08:47:19;;;;;;;33.22;10.15;;;4.30;80.70;;;;;;5113436;28;20085;-75
2022/12/03 08:49:56;;;;;;;29.25;9.43;;;4.20;80.70;;;;;;5112347;28;20021;-74
2022/12/03 08:52:30;;;;;;;32.25;10.05;;;4.20;80.50;;;;;;5113412;28;20115;-74
2022/12/03 08:54:55;;;;;;;34.78;11.18;;;4.20;80.60;;;;;;5113284;28;20055;-75
2022/12/03 08:57:24;;;;;;;34.80;10.57;;;4.20;80.30;;;;;;5113327;28;20024;-75
2022/12/03 08:59:56;;;;;;;28.42;9.70;;;4.20;80.40;;;;;;5112228;28;20016;-74
2022/12/03 09:02:33;;;;;;;;;;;4.20;80.70;;;;;;5112685;28;20028;-74
2022/12/03 09:05:09;;;;;;;25.75;9.55;;;4.20;81.00;;;;;;5113303;28;19904;-74
2022/12/03 09:07:34;;;;;;;31.98;10.98;;;4.20;80.80;;;;;;5113158;28;20035;-75
2022/12/03 09:10:02;;;;;;;30.60;9.70;;;4.10;81.50;;;;;;5112381;28;20032;-74
2022/12/03 09:12:28;;;;;;;31.77;10.52;;;4.10;80.80;;;;;;5112234;28;20032;-74
2022/12/03 09:14:53;;;;;;;37.67;10.35;;;4.10;81.00;;;;;;5112017;28;20036;-74
2022/12/03 09:17:19;;;;;;;29.13;9.80;;;4.10;81.30;;;;;;5112197;28;20029;-74
2022/12/03 09:19:46;;;;;;;26.65;9.43;;;4.10;81.40;;;;;;5116053;28;20025;-74
2022/12/03 09:22:12;;;;;;;33.15;10.73;;;4.10;81.10;;;;;;5116044;28;20095;-74
2022/12/03 09:24:37;;;;;;;30.38;11.05;;;4.10;81.20;;;;;;5116920;28;20046;-75
2022/12/03 09:27:03;;;;;;;37.33;11.07;;;4.20;81.30;;;;;;5116991;28;20020;-74
2022/12/03 09:29:28;;;;;;;37.70;11.93;;;4.10;81.40;;;;;;5098984;28;20043;-75
2022/12/03 09:31:54;;;;;;;32.13;9.93;;;4.10;81.50;;;;;;5116470;28;20052;-74
2022/12/03 09:34:19;;;;;;;30.33;10.55;;;4.10;81.30;;;;;;5115698;28;20081;-75
2022/12/03 09:36:45;;;;;;;33.08;10.20;;;4.10;81.20;;;;;;5116662;28;20391;-75
2022/12/03 09:39:11;;;;;;;33.90;10.45;;;4.10;81.50;;;;;;5116608;28;20054;-74
2022/12/03 09:41:36;;;;;;;33.22;9.63;;;4.10;81.70;;;;;;5098727;28;20024;-74
2022/12/03 09:44:02;;;;;;;33.97;10.82;;;4.10;81.60;;;;;;5116541;28;20051;-74
2022/12/03 09:46:29;;;;;;;27.40;8.93;;;4.00;81.60;;;;;;5116516;28;20028;-74
2022/12/03 09:48:54;;;;;;;28.83;9.48;;;4.00;81.50;;;;;;5116470;28;20031;-75
2022/12/03 09:51:21;;;;;;;26.05;9.70;;;4.10;81.80;;;;;;5098533;28;20020;-75
2022/12/03 09:53:47;;;;;;;33.03;9.48;;;4.00;82.10;;;;;;5116242;28;20031;-75
2022/12/03 09:56:20;;;;;;;28.77;8.70;;;4.00;81.00;;;;;;5098376;28;20036;-74
2022/12/03 09:58:47;;;;;;;25.92;8.45;;;4.00;81.10;;;;;;5116310;28;20436;-75
2022/12/03 10:01:14;;;;;;;28.95;9.20;;;4.00;80.60;;;;;;5115217;28;20091;-74
2022/12/03 10:03:45;;;;;;;29.77;8.63;;;4.00;80.20;;;;;;5115254;28;20035;-74
2022/12/03 10:06:15;;;;;;;18.77;7.85;;;4.00;80.30;;;;;;5115158;28;20028;-74
2022/12/03 10:08:41;;;;;;;21.73;6.60;;;4.00;80.00;;;;;;5116003;28;20050;-74
2022/12/03 10:11:07;;;;;;;23.05;7.70;;;4.00;80.40;;;;;;5116034;28;20036;-75
2022/12/03 10:13:36;;;;;;;22.63;7.88;;;4.00;79.70;;;;;;5114960;28;20039;-75
2022/12/03 10:16:01;;;;;;;30.05;8.95;;;4.00;79.80;;;;;;5115918;28;20020;-75
2022/12/03 10:18:30;;;;;;;24.42;8.13;;;4.00;79.30;;;;;;5115868;28;20025;-75
2022/12/03 10:20:56;;;;;;;22.27;8.02;;;4.00;79.30;;;;;;5115849;28;20044;-74
2022/12/03 10:23:28;;;;;;;22.52;7.75;;;4.00;79.20;;;;;;5114808;28;20044;-74
2022/12/03 10:25:59;;;;;;;22.70;7.13;;;4.00;79.50;;;;;;5115939;28;20024;-75
2022/12/03 10:28:31;;;;;;;19.52;7.07;;;4.00;79.30;;;;;;5115700;28;20020;-75
2022/12/03 10:30:58;;;;;;;18.95;6.15;;;4.00;78.70;;;;;;5114855;28;20475;-74
2022/12/03 10:33:29;;;;;;;17.02;6.68;;;4.00;78.40;;;;;;5097687;28;20104;-74
2022/12/03 10:35:55;;;;;;;17.13;7.05;;;4.10;78.20;;;;;;5115569;28;20024;-74
2022/12/03 10:38:22;;;;;;;15.95;6.10;;;4.00;78.00;;;;;;5114629;28;20384;-75
2022/12/03 10:40:48;;;;;;;17.58;6.03;;;4.00;77.20;;;;;;5115458;28;20028;-75
2022/12/03 10:43:24;;;;;;;17.60;6.68;;;4.00;78.30;;;;;;5114449;28;20088;-74
2022/12/03 10:46:15;;;;;;;18.67;6.72;;;4.10;77.60;;;;;;5115333;28;20024;-74
2022/12/03 10:48:41;;;;;;;19.90;6.68;;;4.10;77.70;;;;;;5115500;28;20016;-75
2022/12/03 10:51:33;;;;;;;21.63;7.20;;;4.10;77.80;;;;;;5114383;28;20061;-74
2022/12/03 10:54:00;;;;;;;17.92;7.28;;;4.10;77.60;;;;;;5109577;28;20039;-74
2022/12/03 10:56:26;;;;;;;19.73;8.38;;;4.10;78.20;;;;;;5115128;28;20079;-74
2022/12/03 10:58:52;;;;;;;20.40;7.57;;;4.00;78.40;;;;;;5114083;28;20035;-75
2022/12/03 11:01:23;;;;;;;19.38;7.30;;;4.10;78.10;;;;;;5115084;28;20020;-74
2022/12/03 11:03:50;;;;;;;20.42;6.95;;;4.10;77.30;;;;;;5114322;28;20088;-74
2022/12/03 11:06:18;;;;;;;25.45;8.23;;;4.10;77.90;;;;;;5115007;28;20031;-74
2022/12/03 11:08:49;;;;;;;21.27;7.38;;;4.10;78.00;;;;;;5114633;28;20083;-75
2022/12/03 11:11:26;;;;;;;22.08;7.43;;;4.10;77.90;;;;;;5113879;28;20030;-75
2022/12/03 11:13:57;;;;;;;18.77;7.72;;;4.10;78.00;;;;;;5114764;28;20029;-74
2022/12/03 11:16:38;;;;;;;21.67;6.93;;;4.00;77.70;;;;;;5113926;28;20119;-75
2022/12/03 11:19:10;;;;;;;23.05;8.07;;;4.00;77.80;;;;;;5114699;28;20028;-75
2022/12/03 11:22:05;;;;;;;17.70;7.28;;;4.00;78.40;;;;;;5114849;28;20020;-75
2022/12/03 11:24:35;;;;;;;25.27;9.18;;;4.00;78.40;;;;;;5114590;28;20028;-74
2022/12/03 11:27:00;;;;;;;18.77;6.90;;;4.10;79.10;;;;;;5114570;28;20048;-75
2022/12/03 11:29:50;;;;;;;20.92;8.40;;;4.10;78.00;;;;;;5114494;28;20077;-74
2022/12/03 11:32:37;;;;;;;21.30;7.50;;;4.10;78.20;;;;;;5114201;28;20548;-75
2022/12/03 11:35:36;;;;;;;22.27;7.80;;;4.10;78.40;;;;;;5113329;28;20039;-74
2022/12/03 11:38:39;;;;;;;20.63;7.53;;;4.20;78.30;;;;;;5103435;28;20036;-75
2022/12/03 11:41:28;;;;;;;23.25;8.23;;;4.10;77.90;;;;;;5113167;28;20028;-75
2022/12/03 11:43:55;;;;;;;18.33;7.38;;;4.10;77.70;;;;;;5114262;28;20024;-74
2022/12/03 11:46:22;;;;;;;20.90;7.18;;;4.10;77.90;;;;;;5114222;28;20023;-75
2022/12/03 11:48:50;;;;;;;19.15;8.02;;;4.10;78.20;;;;;;5114162;28;20065;-75
2022/12/03 11:51:18;;;;;;;20.10;8.15;;;4.20;78.10;;;;;;5114134;28;20100;-74
2022/12/03 11:53:44;;;;;;;20.65;8.27;;;4.20;77.80;;;;;;5112928;28;20035;-75
2022/12/03 11:56:25;;;;;;;23.77;7.63;;;4.10;78.20;;;;;;5114055;28;20012;-74
2022/12/03 11:59:00;;;;;;;23.55;8.10;;;4.20;77.90;;;;;;5114073;28;20024;-74
2022/12/03 12:01:37;;;;;;;23.83;8.70;;;4.10;78.20;;;;;;5114091;28;20021;-74
2022/12/03 12:04:03;;;;;;;19.67;8.20;;;4.20;78.40;;;;;;5113896;28;20020;-75
2022/12/03 12:06:40;;;;;;;20.88;7.72;;;4.20;78.20;;;;;;5113911;28;20052;-75
2022/12/03 12:09:05;;;;;;;18.73;8.00;;;4.20;78.20;;;;;;5113787;28;20024;-74
2022/12/03 12:11:33;;;;;;;27.08;8.52;;;4.20;78.30;;;;;;5113844;28;20499;-74
2022/12/03 12:14:03;;;;;;;23.25;8.30;;;4.20;77.90;;;;;;5113692;28;20031;-75
2022/12/03 12:16:35;;;;;;;21.73;7.68;;;4.20;78.10;;;;;;5112763;28;20021;-74
2022/12/03 12:19:41;;;;;;;21.17;7.68;;;4.20;78.10;;;;;;5113715;28;20035;-74
2022/12/03 12:22:34;;;;;;;17.58;6.68;;;4.20;78.20;;;;;;5113791;28;20348;-75
2022/12/03 12:25:24;;;;;;;21.63;7.50;;;4.20;77.90;;;;;;5113283;28;20036;-74
2022/12/03 12:27:52;;;;;;;23.83;8.65;;;4.20;77.40;;;;;;5113450;28;20028;-74
2022/12/03 12:30:20;;;;;;;22.45;7.53;;;4.20;77.90;;;;;;5112657;28;20030;-74
2022/12/03 12:32:52;;;;;;;24.73;8.43;;;4.20;78.50;;;;;;5113227;28;20076;-74
2022/12/03 12:35:21;;;;;;;26.03;8.40;;;4.20;78.30;;;;;;5113494;28;20036;-74
2022/12/03 12:37:53;;;;;;;20.25;7.30;;;4.20;78.40;;;;;;5113509;28;20079;-75
2022/12/03 12:40:22;;;;;;;26.88;10.60;;;4.20;78.20;;;;;;5112600;28;20016;-75
2022/12/03 12:42:54;;;;;;;29.23;8.75;;;4.20;77.70;;;;;;5113496;28;20016;-75
2022/12/03 12:45:23;;;;;;;23.23;8.10;;;4.30;78.00;;;;;;5113513;28;20061;-74
2022/12/03 12:47:56;;;;;;;25.63;8.88;;;4.20;78.00;;;;;;5113408;28;20056;-74
2022/12/03 12:50:21;;;;;;;29.38;8.13;;;4.20;78.30;;;;;;5113546;28;20024;-74
2022/12/03 12:53:01;;;;;;;23.05;7.93;;;4.30;78.40;;;;;;5113388;28;20037;-74
2022/12/03 12:55:27;;;;;;;24.27;7.97;;;4.20;78.10;;;;;;5117450;28;20020;-74
2022/12/03 12:57:56;;;;;;;24.20;8.25;;;4.30;78.00;;;;;;5116578;28;20036;-75
2022/12/03 13:00:22;;;;;;;29.10;9.27;;;4.20;77.80;;;;;;5117466;28;20020;-74
2022/12/03 13:03:00;;;;;;;26.15;9.05;;;4.20;78.20;;;;;;5117393;28;20024;-74
2022/12/03 13:05:31;;;;;;;26.48;9.40;;;4.20;78.30;;;;;;5117264;28;20028;-74
2022/12/03 13:07:57;;;;;;;26.52;10.20;;;4.30;78.50;;;;;;5116301;28;20028;-74
2022/12/03 13:10:37;;;;;;;26.83;10.00;;;4.30;78.20;;;;;;5116382;28;20046;-75
2022/12/03 13:13:21;;;;;;;25.15;7.93;;;4.20;78.50;;;;;;5117191;28;20164;-75
2022/12/03 13:15:48;;;;;;;26.33;8.35;;;4.30;78.70;;;;;;5117167;28;20024;-74
2022/12/03 13:18:25;;;;;;;28.13;8.60;;;4.30;78.60;;;;;;5117085;28;20076;-75